createdAt,value
2019-04-28T00:00:02.621Z,84.082031
2019-04-28T00:01:12.153Z,84.289551
2019-04-28T00:02:22.383Z,84.70459
2019-04-28T00:03:32.242Z,84.912109
2019-04-28T00:04:41.774Z,85.424805
2019-04-28T00:05:51.467Z,86.047363
2019-04-28T00:07:01.736Z,86.047363
2019-04-28T00:08:10.851Z,86.358643
2019-04-28T00:09:21.259Z,87.390137
2019-04-28T00:10:29.478Z,87.329102
2019-04-28T00:11:39.038Z,86.956787
2019-04-28T00:12:48.588Z,88.50708
2019-04-28T00:13:58.143Z,89.379883
2019-04-28T00:15:07.680Z,89.208984
2019-04-28T00:16:17.211Z,90.039062
2019-04-28T00:17:27.750Z,90.765381
2019-04-28T00:18:37.282Z,90.808105
2019-04-28T00:19:46.829Z,91.119385
2019-04-28T00:20:56.368Z,90.911865
2019-04-28T00:22:05.938Z,91.119385
2019-04-28T00:23:16.482Z,91.119385
2019-04-28T00:24:26.996Z,91.430664
2019-04-28T00:25:36.539Z,91.949463
2019-04-28T00:26:46.075Z,91.741943
2019-04-28T00:27:56.651Z,91.949463
2019-04-28T00:29:06.200Z,91.534424
2019-04-28T00:30:15.721Z,91.473389
2019-04-28T00:31:26.272Z,91.741943
2019-04-28T00:32:35.806Z,91.638184
2019-04-28T00:33:46.351Z,91.223145
2019-04-28T00:34:56.876Z,91.162109
2019-04-28T00:36:07.432Z,91.162109
2019-04-28T00:37:17.010Z,91.369629
2019-04-28T00:38:26.579Z,91.473389
2019-04-28T00:39:36.162Z,91.265869
2019-04-28T00:40:45.693Z,91.369629
2019-04-28T00:41:56.211Z,91.369629
2019-04-28T00:43:06.765Z,91.369629
2019-04-28T00:44:16.333Z,91.265869
2019-04-28T00:45:26.850Z,91.473389
2019-04-28T00:46:36.375Z,91.680908
2019-04-28T00:47:45.922Z,91.162109
2019-04-28T00:48:56.467Z,90.95459
2019-04-28T00:50:07.024Z,90.95459
2019-04-28T00:51:16.551Z,90.95459
2019-04-28T00:52:26.129Z,90.95459
2019-04-28T00:53:36.671Z,91.05835
2019-04-28T00:54:46.232Z,91.162109
2019-04-28T00:55:56.770Z,91.265869
2019-04-28T00:57:07.328Z,91.265869
2019-04-28T00:58:16.884Z,91.265869
2019-04-28T00:59:26.432Z,91.369629
2019-04-28T01:00:36.948Z,91.162109
2019-04-28T01:01:46.482Z,91.265869
2019-04-28T01:02:56.064Z,91.05835
2019-04-28T01:04:06.600Z,91.162109
2019-04-28T01:05:17.124Z,91.265869
2019-04-28T01:06:26.661Z,91.369629
2019-04-28T01:07:37.201Z,91.05835
2019-04-28T01:08:46.739Z,91.05835
2019-04-28T01:09:56.303Z,91.05835
2019-04-28T01:11:06.838Z,90.85083
2019-04-28T01:12:16.397Z,90.85083
2019-04-28T01:13:25.934Z,91.223145
2019-04-28T01:14:36.470Z,91.223145
2019-04-28T01:15:46.993Z,91.223145
2019-04-28T01:16:56.538Z,91.223145
2019-04-28T01:18:06.094Z,91.223145
2019-04-28T01:19:15.625Z,91.326904
2019-04-28T01:20:25.172Z,91.326904
2019-04-28T01:21:34.720Z,91.326904
2019-04-28T01:22:45.288Z,91.223145
2019-04-28T01:23:54.810Z,91.223145
2019-04-28T01:25:04.342Z,91.119385
2019-04-28T01:26:14.890Z,90.765381
2019-04-28T01:27:25.411Z,90.557861
2019-04-28T01:28:34.979Z,90.557861
2019-04-28T01:29:44.508Z,90.661621
2019-04-28T01:30:55.046Z,90.765381
2019-04-28T01:32:04.591Z,90.9729
2019-04-28T01:33:15.148Z,91.18042
2019-04-28T01:34:25.689Z,90.9729
2019-04-28T01:35:35.230Z,91.07666
2019-04-28T01:36:44.761Z,90.661621
2019-04-28T01:37:55.299Z,90.765381
2019-04-28T01:39:04.842Z,90.557861
2019-04-28T01:40:15.398Z,90.661621
2019-04-28T01:41:25.936Z,90.661621
2019-04-28T01:42:35.474Z,90.515137
2019-04-28T01:43:46.010Z,90.618896
2019-04-28T01:44:55.557Z,90.618896
2019-04-28T01:46:06.084Z,90.515137
2019-04-28T01:47:15.616Z,90.618896
2019-04-28T01:48:25.170Z,90.722656
2019-04-28T01:49:35.728Z,90.930176
2019-04-28T01:50:45.267Z,90.826416
2019-04-28T01:51:54.797Z,90.930176
2019-04-28T01:53:05.343Z,90.930176
2019-04-28T01:54:14.885Z,90.826416
2019-04-28T01:55:25.436Z,89.892578
2019-04-28T01:56:34.944Z,89.788818
2019-04-28T01:57:45.481Z,89.892578
2019-04-28T01:58:55.056Z,89.996338
2019-04-28T02:00:18.928Z,89.276123
2019-04-28T02:01:16.136Z,89.581299
2019-04-28T02:02:25.695Z,89.276123
2019-04-28T02:03:35.251Z,88.653564
2019-04-28T02:04:45.800Z,88.653564
2019-04-28T02:05:55.326Z,88.342285
2019-04-28T02:07:04.887Z,88.134766
2019-04-28T02:08:15.422Z,87.884521
2019-04-28T02:09:24.966Z,87.719727
2019-04-28T02:10:34.529Z,87.988281
2019-04-28T02:11:45.098Z,87.677002
2019-04-28T02:12:54.642Z,87.615967
2019-04-28T02:14:05.151Z,87.512207
2019-04-28T02:15:14.665Z,87.200928
2019-04-28T02:16:25.205Z,86.956787
2019-04-28T02:17:34.777Z,86.853027
2019-04-28T02:18:45.303Z,86.853027
2019-04-28T02:19:55.837Z,86.437988
2019-04-28T02:21:05.391Z,86.541748
2019-04-28T02:22:14.970Z,86.437988
2019-04-28T02:23:25.497Z,86.749268
2019-04-28T02:24:35.056Z,86.065674
2019-04-28T02:25:45.570Z,85.858154
2019-04-28T02:26:55.121Z,85.71167
2019-04-28T02:28:05.645Z,86.169434
2019-04-28T02:29:16.176Z,85.650635
2019-04-28T02:30:40.890Z,86.022949
2019-04-28T02:31:36.246Z,85.961914
2019-04-28T02:32:46.801Z,85.858154
2019-04-28T02:33:56.381Z,85.546875
2019-04-28T02:35:05.939Z,85.339355
2019-04-28T02:36:15.465Z,85.131836
2019-04-28T02:37:26.019Z,85.235596
2019-04-28T02:38:35.526Z,85.235596
2019-04-28T02:39:46.085Z,85.131836
2019-04-28T02:40:55.594Z,85.235596
2019-04-28T02:42:05.133Z,85.339355
2019-04-28T02:43:15.667Z,85.443115
2019-04-28T02:44:26.209Z,85.754395
2019-04-28T02:45:36.722Z,85.235596
2019-04-28T02:46:46.249Z,85.443115
2019-04-28T02:47:55.795Z,84.716797
2019-04-28T02:49:06.308Z,85.028076
2019-04-28T02:50:15.884Z,84.405518
2019-04-28T02:51:26.406Z,84.716797
2019-04-28T02:52:35.950Z,84.613037
2019-04-28T02:53:46.485Z,84.613037
2019-04-28T02:54:56.016Z,84.197998
2019-04-28T02:56:06.543Z,84.301758
2019-04-28T02:57:16.071Z,84.301758
2019-04-28T02:58:25.594Z,84.197998
2019-04-28T02:59:36.107Z,84.197998
2019-04-28T03:01:00.767Z,84.094238
2019-04-28T03:01:57.163Z,84.405518
2019-04-28T03:03:06.720Z,84.613037
2019-04-28T03:04:16.255Z,84.716797
2019-04-28T03:05:25.787Z,84.509277
2019-04-28T03:06:36.334Z,84.301758
2019-04-28T03:07:45.909Z,84.197998
2019-04-28T03:08:56.426Z,83.782959
2019-04-28T03:10:05.955Z,83.679199
2019-04-28T03:11:16.484Z,83.575439
2019-04-28T03:12:26.033Z,83.782959
2019-04-28T03:13:36.574Z,83.47168
2019-04-28T03:14:46.085Z,83.056641
2019-04-28T03:15:55.625Z,83.36792
2019-04-28T03:17:06.142Z,83.47168
2019-04-28T03:18:15.701Z,83.575439
2019-04-28T03:19:26.245Z,83.099365
2019-04-28T03:20:36.778Z,82.995605
2019-04-28T03:21:47.311Z,83.099365
2019-04-28T03:22:56.870Z,83.099365
2019-04-28T03:24:06.401Z,83.306885
2019-04-28T03:25:16.927Z,82.788086
2019-04-28T03:26:26.458Z,83.099365
2019-04-28T03:27:36.011Z,82.891846
2019-04-28T03:28:45.556Z,82.891846
2019-04-28T03:29:56.088Z,82.891846
2019-04-28T03:31:34.236Z,82.788086
2019-04-28T03:32:32.188Z,82.061768
2019-04-28T03:33:26.818Z,82.580566
2019-04-28T03:34:37.163Z,82.269287
2019-04-28T03:35:47.696Z,82.684326
2019-04-28T03:37:00.304Z,82.305908
2019-04-28T03:38:07.784Z,82.305908
2019-04-28T03:39:20.433Z,82.409668
2019-04-28T03:40:27.850Z,82.513428
2019-04-28T03:41:40.483Z,82.202148
2019-04-28T03:42:47.935Z,82.202148
2019-04-28T03:44:00.234Z,82.202148
2019-04-28T03:45:07.046Z,82.409668
2019-04-28T03:46:16.568Z,82.098389
2019-04-28T03:47:26.096Z,82.409668
2019-04-28T03:48:36.629Z,82.513428
2019-04-28T03:49:46.175Z,82.513428
2019-04-28T03:50:55.714Z,82.824707
2019-04-28T03:52:05.292Z,82.757568
2019-04-28T03:53:15.819Z,82.757568
2019-04-28T03:54:26.082Z,82.653809
2019-04-28T03:55:35.572Z,82.861328
2019-04-28T03:56:46.094Z,83.276367
2019-04-28T03:57:56.589Z,83.172607
2019-04-28T03:59:06.135Z,83.380127
2019-04-28T04:00:15.677Z,83.172607
2019-04-28T04:01:26.204Z,83.172607
2019-04-28T04:02:35.736Z,83.483887
2019-04-28T04:03:46.264Z,83.587646
2019-04-28T04:04:56.790Z,83.483887
2019-04-28T04:06:07.313Z,83.630371
2019-04-28T04:07:16.820Z,84.04541
2019-04-28T04:08:26.384Z,83.734131
2019-04-28T04:09:35.907Z,83.94165
2019-04-28T04:10:46.426Z,84.04541
2019-04-28T04:11:56.973Z,84.14917
2019-04-28T04:13:07.523Z,84.25293
2019-04-28T04:14:17.078Z,84.25293
2019-04-28T04:15:26.642Z,84.460449
2019-04-28T04:16:36.162Z,84.356689
2019-04-28T04:17:45.688Z,84.25293
2019-04-28T04:18:56.227Z,84.564209
2019-04-28T04:20:05.760Z,84.564209
2019-04-28T04:21:16.329Z,84.564209
2019-04-28T04:22:26.837Z,84.356689
2019-04-28T04:23:36.379Z,84.25293
2019-04-28T04:24:45.913Z,84.14917
2019-04-28T04:25:56.441Z,84.25293
2019-04-28T04:27:06.984Z,84.356689
2019-04-28T04:28:16.529Z,84.356689
2019-04-28T04:29:26.085Z,84.564209
2019-04-28T04:30:35.635Z,84.04541
2019-04-28T04:31:46.177Z,84.04541
2019-04-28T04:32:55.728Z,83.94165
2019-04-28T04:34:06.256Z,83.630371
2019-04-28T04:35:15.790Z,83.380127
2019-04-28T04:36:26.329Z,83.380127
2019-04-28T04:37:35.863Z,83.691406
2019-04-28T04:38:46.348Z,83.691406
2019-04-28T04:39:55.958Z,83.483887
2019-04-28T04:41:06.477Z,83.691406
2019-04-28T04:42:16.006Z,83.691406
2019-04-28T04:43:25.536Z,83.276367
2019-04-28T04:44:38.662Z,83.691406
2019-04-28T04:45:46.625Z,83.587646
2019-04-28T04:46:56.170Z,83.691406
2019-04-28T04:48:05.701Z,83.483887
2019-04-28T04:49:16.274Z,83.691406
2019-04-28T04:50:26.815Z,83.380127
2019-04-28T04:51:36.359Z,83.483887
2019-04-28T04:52:46.889Z,83.734131
2019-04-28T04:53:56.476Z,83.587646
2019-04-28T04:55:06.006Z,83.276367
2019-04-28T04:56:16.525Z,83.380127
2019-04-28T04:57:26.055Z,83.172607
2019-04-28T04:58:36.611Z,83.276367
2019-04-28T04:59:46.153Z,83.276367
2019-04-28T05:00:55.682Z,83.172607
2019-04-28T05:02:06.241Z,83.068848
2019-04-28T05:03:16.764Z,83.172607
2019-04-28T05:04:26.310Z,82.861328
2019-04-28T05:05:35.859Z,82.342529
2019-04-28T05:06:45.395Z,82.550049
2019-04-28T05:07:54.949Z,82.409668
2019-04-28T05:09:05.502Z,82.513428
2019-04-28T05:10:15.045Z,82.513428
2019-04-28T05:11:25.570Z,82.305908
2019-04-28T05:12:35.152Z,82.098389
2019-04-28T05:13:45.673Z,81.854248
2019-04-28T05:14:55.232Z,81.439209
2019-04-28T05:16:05.766Z,81.542969
2019-04-28T05:17:15.302Z,81.12793
2019-04-28T05:18:24.822Z,81.12793
2019-04-28T05:19:34.402Z,81.439209
2019-04-28T05:20:44.905Z,81.335449
2019-04-28T05:21:55.477Z,81.231689
2019-04-28T05:23:04.989Z,81.231689
2019-04-28T05:24:15.612Z,81.335449
2019-04-28T05:25:29.174Z,81.02417
2019-04-28T05:26:35.546Z,81.231689
2019-04-28T05:27:46.063Z,80.81665
2019-04-28T05:28:55.579Z,81.02417
2019-04-28T05:30:05.482Z,80.92041
2019-04-28T05:31:40.612Z,80.81665
2019-04-28T05:32:56.032Z,80.780029
2019-04-28T05:34:04.069Z,81.091309
2019-04-28T05:35:11.171Z,80.780029
2019-04-28T05:36:21.702Z,80.57251
2019-04-28T05:37:31.229Z,80.36499
2019-04-28T05:38:42.109Z,80.053711
2019-04-28T05:39:52.492Z,80.053711
2019-04-28T05:41:00.285Z,80.26123
2019-04-28T05:42:11.158Z,80.57251
2019-04-28T05:43:19.534Z,80.053711
2019-04-28T05:44:29.880Z,80.26123
2019-04-28T05:45:39.542Z,80.36499
2019-04-28T05:46:47.432Z,80.157471
2019-04-28T05:47:56.934Z,80.46875
2019-04-28T05:49:06.484Z,79.91333
2019-04-28T05:50:16.019Z,79.504395
2019-04-28T05:51:25.551Z,79.504395
2019-04-28T05:52:35.097Z,78.570557
2019-04-28T05:53:45.609Z,77.600098
2019-04-28T05:54:56.175Z,77.496338
2019-04-28T05:56:05.706Z,77.288818
2019-04-28T05:57:15.214Z,77.050781
2019-04-28T05:58:25.734Z,76.843262
2019-04-28T05:59:35.265Z,77.050781
2019-04-28T06:00:45.820Z,75.982666
2019-04-28T06:01:55.336Z,74.945068
2019-04-28T06:03:05.839Z,74.633789
2019-04-28T06:04:15.348Z,74.945068
2019-04-28T06:05:24.889Z,74.017334
2019-04-28T06:06:35.425Z,73.498535
2019-04-28T06:07:45.951Z,73.809814
2019-04-28T06:08:55.483Z,74.017334
2019-04-28T06:10:05.032Z,73.913574
2019-04-28T06:11:15.564Z,74.017334
2019-04-28T06:12:25.079Z,73.156738
2019-04-28T06:13:35.615Z,72.43042
2019-04-28T06:14:45.146Z,72.32666
2019-04-28T06:15:55.718Z,72.296143
2019-04-28T06:17:05.212Z,71.368408
2019-04-28T06:18:15.751Z,71.057129
2019-04-28T06:19:25.294Z,71.673584
2019-04-28T06:20:34.820Z,70.849609
2019-04-28T06:21:45.349Z,69.818115
2019-04-28T06:22:54.878Z,69.885254
2019-04-28T06:24:04.408Z,69.476318
2019-04-28T06:25:13.982Z,68.85376
2019-04-28T06:26:23.536Z,68.85376
2019-04-28T06:27:33.061Z,68.341064
2019-04-28T06:28:42.565Z,68.54248
2019-04-28T06:29:52.082Z,68.579102
2019-04-28T06:31:01.644Z,69.061279
2019-04-28T06:32:11.158Z,69.268799
2019-04-28T06:33:20.699Z,68.444824
2019-04-28T06:34:30.216Z,68.54248
2019-04-28T06:35:40.125Z,67.895508
2019-04-28T06:36:49.672Z,67.895508
2019-04-28T06:37:59.191Z,68.103027
2019-04-28T06:39:08.719Z,68.066406
2019-04-28T06:40:18.238Z,67.034912
2019-04-28T06:41:27.777Z,66.937256
2019-04-28T06:42:37.304Z,67.004395
2019-04-28T06:43:46.847Z,65.771484
2019-04-28T06:44:56.389Z,64.94751
2019-04-28T06:46:05.951Z,64.63623
2019-04-28T06:47:16.859Z,64.190674
2019-04-28T06:48:24.981Z,64.093018
2019-04-28T06:49:34.510Z,63.989258
2019-04-28T06:50:44.038Z,63.989258
2019-04-28T06:51:53.607Z,63.574219
2019-04-28T06:53:03.159Z,63.500977
2019-04-28T06:54:12.651Z,63.781738
2019-04-28T06:55:22.182Z,63.708496
2019-04-28T06:56:31.721Z,63.916016
2019-04-28T06:57:41.239Z,64.117432
2019-04-28T06:58:58.659Z,64.093018
2019-04-28T07:00:01.229Z,63.989258
2019-04-28T07:01:10.763Z,63.269043
2019-04-28T07:02:20.303Z,63.781738
2019-04-28T07:03:29.821Z,63.677979
2019-04-28T07:04:39.343Z,64.501953
2019-04-28T07:05:48.881Z,63.677979
2019-04-28T07:06:58.409Z,64.16626
2019-04-28T07:08:07.948Z,63.543701
2019-04-28T07:09:18.493Z,63.415527
2019-04-28T07:10:28.014Z,62.591553
2019-04-28T07:11:37.566Z,62.04834
2019-04-28T07:12:47.090Z,61.975098
2019-04-28T07:13:56.637Z,61.047363
2019-04-28T07:15:06.187Z,61.767578
2019-04-28T07:16:15.710Z,61.352539
2019-04-28T07:17:25.234Z,61.663818
2019-04-28T07:18:34.744Z,61.431885
2019-04-28T07:19:44.264Z,61.84082
2019-04-28T07:20:53.817Z,61.608887
2019-04-28T07:22:03.365Z,60.986328
2019-04-28T07:23:12.904Z,60.577393
2019-04-28T07:24:23.422Z,60.913086
2019-04-28T07:25:32.934Z,61.633301
2019-04-28T07:26:42.484Z,61.737061
2019-04-28T07:27:51.988Z,61.401367
2019-04-28T07:29:01.529Z,61.401367
2019-04-28T07:30:11.052Z,60.986328
2019-04-28T07:31:20.587Z,61.193848
2019-04-28T07:32:30.128Z,61.016846
2019-04-28T07:33:39.669Z,62.1521
2019-04-28T07:34:49.241Z,62.561035
2019-04-28T07:35:58.781Z,61.94458
2019-04-28T07:37:08.308Z,61.84082
2019-04-28T07:38:17.835Z,61.94458
2019-04-28T07:39:27.360Z,62.1521
2019-04-28T07:40:36.899Z,61.737061
2019-04-28T07:41:46.454Z,62.1521
2019-04-28T07:42:55.988Z,62.457275
2019-04-28T07:44:05.535Z,61.608887
2019-04-28T07:45:15.046Z,61.578369
2019-04-28T07:46:24.600Z,60.754395
2019-04-28T07:47:34.137Z,60.72998
2019-04-28T07:48:43.658Z,59.906006
2019-04-28T07:49:53.179Z,59.979248
2019-04-28T07:51:02.742Z,58.953857
2019-04-28T07:52:12.298Z,59.259033
2019-04-28T07:53:21.843Z,59.057617
2019-04-28T07:54:31.384Z,59.338379
2019-04-28T07:55:40.910Z,58.92334
2019-04-28T07:56:50.467Z,59.234619
2019-04-28T07:57:59.994Z,58.178711
2019-04-28T07:59:09.534Z,56.744385
2019-04-28T08:00:19.065Z,57.25708
2019-04-28T08:01:28.601Z,56.921387
2019-04-28T08:02:38.127Z,56.512451
2019-04-28T08:03:49.475Z,56.713867
2019-04-28T08:04:57.163Z,55.847168
2019-04-28T08:06:06.681Z,55.023193
2019-04-28T08:07:16.266Z,55.334473
2019-04-28T08:08:25.794Z,55.206299
2019-04-28T08:09:36.332Z,54.284668
2019-04-28T08:10:45.850Z,54.25415
2019-04-28T08:11:55.390Z,53.796387
2019-04-28T08:13:04.909Z,53.057861
2019-04-28T08:14:14.432Z,53.033447
2019-04-28T08:15:24.944Z,51.757812
2019-04-28T08:16:34.521Z,51.654053
2019-04-28T08:17:44.037Z,50.610352
2019-04-28T08:18:53.606Z,51.019287
2019-04-28T08:20:05.525Z,50.097656
2019-04-28T08:21:12.656Z,49.304199
2019-04-28T08:22:22.181Z,50.024414
2019-04-28T08:23:31.727Z,49.694824
2019-04-28T08:24:42.185Z,49.536133
2019-04-28T08:25:51.722Z,49.761963
2019-04-28T08:27:01.279Z,51.623535
2019-04-28T08:28:10.914Z,51.446533
2019-04-28T08:29:20.458Z,52.160645
2019-04-28T08:30:30.019Z,52.46582
2019-04-28T08:31:39.556Z,52.160645
2019-04-28T08:32:49.093Z,52.23999
2019-04-28T08:34:02.360Z,52.111816
2019-04-28T08:35:08.158Z,52.215576
2019-04-28T08:36:17.769Z,52.978516
2019-04-28T08:37:27.415Z,53.411865
2019-04-28T08:38:36.977Z,53.308105
2019-04-28T08:39:46.511Z,53.717041
2019-04-28T08:40:56.036Z,53.900146
2019-04-28T08:42:05.605Z,53.900146
2019-04-28T08:43:15.208Z,52.46582
2019-04-28T08:44:24.734Z,52.185059
2019-04-28T08:45:34.263Z,52.89917
2019-04-28T08:46:43.787Z,53.00293
2019-04-28T08:47:54.313Z,52.89917
2019-04-28T08:49:03.824Z,53.308105
2019-04-28T08:50:13.382Z,52.801514
2019-04-28T08:51:22.919Z,52.056885
2019-04-28T08:52:33.458Z,51.544189
2019-04-28T08:53:43.016Z,51.342773
2019-04-28T08:54:52.557Z,51.184082
2019-04-28T08:56:02.073Z,52.441406
2019-04-28T08:57:11.632Z,52.825928
2019-04-28T08:58:21.174Z,52.416992
2019-04-28T08:59:30.680Z,52.56958
2019-04-28T09:00:40.222Z,50.219727
2019-04-28T09:01:49.765Z,50.115967
2019-04-28T09:02:59.339Z,50.628662
2019-04-28T09:04:15.035Z,49.194336
2019-04-28T09:05:19.376Z,49.32251
2019-04-28T09:06:29.238Z,50.366211
2019-04-28T09:07:38.778Z,49.11499
2019-04-28T09:08:48.294Z,49.11499
2019-04-28T09:09:57.850Z,50.219727
2019-04-28T09:11:07.375Z,49.707031
2019-04-28T09:12:16.943Z,50.012207
2019-04-28T09:13:26.484Z,50.317383
2019-04-28T09:14:36.598Z,50.524902
2019-04-28T09:15:46.125Z,49.090576
2019-04-28T09:16:55.653Z,49.21875
2019-04-28T09:18:05.186Z,49.44458
2019-04-28T09:19:14.690Z,50.366211
2019-04-28T09:20:24.208Z,49.829102
2019-04-28T09:21:33.722Z,49.627686
2019-04-28T09:22:43.238Z,49.829102
2019-04-28T09:23:52.769Z,48.907471
2019-04-28T09:25:02.283Z,48.706055
2019-04-28T09:26:11.786Z,49.01123
2019-04-28T09:27:21.339Z,49.194336
2019-04-28T09:28:30.868Z,49.090576
2019-04-28T09:29:40.401Z,49.090576
2019-04-28T09:30:49.922Z,45.410156
2019-04-28T09:31:59.445Z,46.453857
2019-04-28T09:33:08.980Z,47.375488
2019-04-28T09:34:28.039Z,47.351074
2019-04-28T09:35:29.016Z,46.636963
2019-04-28T09:36:38.533Z,46.307373
2019-04-28T09:37:48.061Z,46.618652
2019-04-28T09:38:57.581Z,46.386719
2019-04-28T09:40:07.113Z,46.160889
2019-04-28T09:41:16.637Z,45.428467
2019-04-28T09:42:26.153Z,45.202637
2019-04-28T09:43:35.698Z,45.715332
2019-04-28T09:44:45.230Z,45.837402
2019-04-28T09:45:54.758Z,46.551514
2019-04-28T09:47:04.298Z,45.550537
2019-04-28T09:48:13.862Z,46.368408
2019-04-28T09:49:23.376Z,46.447754
2019-04-28T09:50:32.891Z,45.629883
2019-04-28T09:51:42.396Z,45.916748
2019-04-28T09:52:51.937Z,45.202637
2019-04-28T09:54:01.473Z,45.080566
2019-04-28T09:55:10.998Z,43.75
2019-04-28T09:56:20.538Z,45.202637
2019-04-28T09:57:30.040Z,45.959473
2019-04-28T09:58:39.595Z,46.960449
2019-04-28T09:59:49.146Z,45.812988
2019-04-28T10:00:58.662Z,45.690918
2019-04-28T10:02:08.191Z,45.361328
2019-04-28T10:03:17.721Z,45.343018
2019-04-28T10:04:27.223Z,44.20166
2019-04-28T10:05:37.729Z,43.530273
2019-04-28T10:06:47.265Z,43.95752
2019-04-28T10:07:56.872Z,44.714355
2019-04-28T10:09:06.406Z,44.812012
2019-04-28T10:10:15.946Z,44.20166
2019-04-28T10:11:30.460Z,45.306396
2019-04-28T10:12:35.945Z,44.244385
2019-04-28T10:13:45.488Z,43.62793
2019-04-28T10:14:55.010Z,43.914795
2019-04-28T10:16:04.530Z,43.713379
2019-04-28T10:17:14.044Z,43.713379
2019-04-28T10:18:23.577Z,42.388916
2019-04-28T10:19:33.109Z,43.383789
2019-04-28T10:20:43.454Z,43.243408
2019-04-28T10:21:52.986Z,41.882324
2019-04-28T10:23:02.514Z,41.186523
2019-04-28T10:24:12.064Z,42.773438
2019-04-28T10:25:21.585Z,42.468262
2019-04-28T10:26:31.093Z,43.505859
2019-04-28T10:27:40.639Z,43.811035
2019-04-28T10:28:50.179Z,43.505859
2019-04-28T10:29:59.697Z,43.62793
2019-04-28T10:31:09.223Z,44.122314
2019-04-28T10:32:18.733Z,44.42749
2019-04-28T10:33:28.311Z,43.713379
2019-04-28T10:34:37.825Z,44.32373
2019-04-28T10:35:48.337Z,44.32373
2019-04-28T10:36:57.868Z,43.078613
2019-04-28T10:38:07.410Z,43.322754
2019-04-28T10:39:16.986Z,44.342041
2019-04-28T10:40:26.518Z,44.18335
2019-04-28T10:41:36.120Z,45.959473
2019-04-28T10:42:45.686Z,46.655273
2019-04-28T10:43:55.230Z,46.30127
2019-04-28T10:45:04.754Z,45.770264
2019-04-28T10:46:14.322Z,44.708252
2019-04-28T10:47:23.883Z,43.87207
2019-04-28T10:48:33.433Z,43.75
2019-04-28T10:49:42.976Z,42.08374
2019-04-28T10:50:52.505Z,42.370605
2019-04-28T10:52:02.062Z,40.460205
2019-04-28T10:53:11.581Z,41.186523
2019-04-28T10:54:21.132Z,41.412354
2019-04-28T10:55:30.696Z,42.126465
2019-04-28T10:56:40.213Z,41.943359
2019-04-28T10:57:49.724Z,42.773438
2019-04-28T10:58:59.268Z,42.407227
2019-04-28T11:00:08.797Z,42.919922
2019-04-28T11:01:18.335Z,42.205811
2019-04-28T11:02:27.869Z,43.835449
2019-04-28T11:03:37.380Z,42.773438
2019-04-28T11:04:46.928Z,41.73584
2019-04-28T11:05:56.436Z,40.618896
2019-04-28T11:07:05.967Z,40.19165
2019-04-28T11:08:15.496Z,40.06958
2019-04-28T11:09:30.547Z,39.318848
2019-04-28T11:10:35.570Z,40.539551
2019-04-28T11:11:45.079Z,37.579346
2019-04-28T11:12:54.610Z,38.983154
2019-04-28T11:14:04.164Z,39.16626
2019-04-28T11:15:13.690Z,37.341309
2019-04-28T11:16:23.220Z,35.72998
2019-04-28T11:17:33.727Z,36.749268
2019-04-28T11:18:43.278Z,37.475586
2019-04-28T11:19:52.820Z,37.915039
2019-04-28T11:21:02.328Z,39.135742
2019-04-28T11:22:11.858Z,39.459229
2019-04-28T11:23:23.215Z,40.905762
2019-04-28T11:24:30.917Z,40.19165
2019-04-28T11:25:40.447Z,40.142822
2019-04-28T11:26:49.963Z,40.899658
2019-04-28T11:27:59.511Z,41.015625
2019-04-28T11:29:09.099Z,42.486572
2019-04-28T11:30:18.611Z,43.200684
2019-04-28T11:31:28.144Z,43.713379
2019-04-28T11:32:37.696Z,43.200684
2019-04-28T11:33:47.256Z,43.62793
2019-04-28T11:34:56.822Z,45.037842
2019-04-28T11:36:06.366Z,44.32373
2019-04-28T11:37:16.873Z,43.713379
2019-04-28T11:38:26.410Z,43.914795
2019-04-28T11:39:35.980Z,43.609619
2019-04-28T11:40:45.511Z,44.20166
2019-04-28T11:41:55.041Z,44.0979
2019-04-28T11:43:04.673Z,43.487549
2019-04-28T11:44:15.190Z,43.792725
2019-04-28T11:45:24.829Z,43.914795
2019-04-28T11:46:34.359Z,45.019531
2019-04-28T11:47:43.894Z,45.428467
2019-04-28T11:48:53.446Z,45.220947
2019-04-28T11:50:03.047Z,46.142578
2019-04-28T11:51:12.587Z,46.936035
2019-04-28T11:52:22.180Z,45.404053
2019-04-28T11:53:31.703Z,44.995117
2019-04-28T11:54:41.287Z,44.000244
2019-04-28T11:55:50.772Z,44.20166
2019-04-28T11:57:00.308Z,45.532227
2019-04-28T11:58:09.817Z,43.914795
2019-04-28T11:59:19.337Z,44.940186
2019-04-28T12:00:28.902Z,44.854736
2019-04-28T12:01:38.430Z,44.671631
2019-04-28T12:02:47.955Z,45.593262
2019-04-28T12:03:57.516Z,46.307373
2019-04-28T12:05:07.095Z,46.002197
2019-04-28T12:06:16.605Z,44.98291
2019-04-28T12:07:26.152Z,45.306396
2019-04-28T12:08:35.681Z,46.533203
2019-04-28T12:09:45.241Z,46.331787
2019-04-28T12:10:54.779Z,46.533203
2019-04-28T12:12:04.327Z,46.411133
2019-04-28T12:13:13.841Z,45.080566
2019-04-28T12:14:23.364Z,45.184326
2019-04-28T12:15:32.915Z,44.98291
2019-04-28T12:16:42.463Z,45.593262
2019-04-28T12:17:51.978Z,44.98291
2019-04-28T12:19:01.505Z,45.166016
2019-04-28T12:20:11.038Z,45.166016
2019-04-28T12:21:20.594Z,45.391846
2019-04-28T12:22:30.093Z,45.715332
2019-04-28T12:23:39.619Z,46.124268
2019-04-28T12:24:49.147Z,46.740723
2019-04-28T12:25:58.677Z,46.533203
2019-04-28T12:27:08.208Z,46.026611
2019-04-28T12:28:17.747Z,46.026611
2019-04-28T12:29:27.270Z,46.435547
2019-04-28T12:30:36.801Z,46.124268
2019-04-28T12:31:46.355Z,46.228027
2019-04-28T12:32:55.954Z,46.636963
2019-04-28T12:34:05.487Z,46.618652
2019-04-28T12:35:15.044Z,46.820068
2019-04-28T12:36:24.565Z,46.490479
2019-04-28T12:37:34.136Z,46.490479
2019-04-28T12:38:43.668Z,45.880127
2019-04-28T12:39:53.194Z,45.977783
2019-04-28T12:41:02.743Z,45.855713
2019-04-28T12:42:12.269Z,46.160889
2019-04-28T12:43:21.935Z,46.777344
2019-04-28T12:44:31.471Z,46.142578
2019-04-28T12:45:41.018Z,45.935059
2019-04-28T12:46:50.551Z,45.916748
2019-04-28T12:48:00.155Z,44.592285
2019-04-28T12:49:09.673Z,44.592285
2019-04-28T12:50:19.224Z,44.793701
2019-04-28T12:51:28.819Z,45.404053
2019-04-28T12:52:38.466Z,45.733643
2019-04-28T12:53:47.996Z,45.428467
2019-04-28T12:54:57.598Z,45.758057
2019-04-28T12:56:07.123Z,46.160889
2019-04-28T12:57:16.733Z,46.081543
2019-04-28T12:58:26.271Z,45.880127
2019-04-28T12:59:35.788Z,46.411133
2019-04-28T13:00:45.640Z,48.150635
2019-04-28T13:01:55.155Z,46.081543
2019-04-28T13:03:04.697Z,44.958496
2019-04-28T13:04:14.228Z,44.87915
2019-04-28T13:05:23.851Z,46.307373
2019-04-28T13:06:33.380Z,45.697021
2019-04-28T13:07:42.908Z,46.002197
2019-04-28T13:08:52.427Z,45.593262
2019-04-28T13:10:01.954Z,46.105957
2019-04-28T13:11:11.488Z,45.898438
2019-04-28T13:12:21.092Z,44.98291
2019-04-28T13:13:30.706Z,45.184326
2019-04-28T13:14:40.235Z,46.209717
2019-04-28T13:15:49.862Z,44.98291
2019-04-28T13:16:59.381Z,43.85376
2019-04-28T13:18:08.899Z,44.262695
2019-04-28T13:19:18.427Z,44.384766